sensor_id;sensor_type;location;lat;lon;timestamp;P1;durP1;ratioP1;P2;durP2;ratioP2
55710;SDS011;41612;51.994;5.880;2024-02-16T00:01:13;6.00;;;2.90;;
55710;SDS011;41612;51.994;5.880;2024-02-16T00:03:42;8.63;;;2.95;;
55710;SDS011;41612;51.994;5.880;2024-02-16T00:06:07;5.38;;;2.55;;
55710;SDS011;41612;51.994;5.880;2024-02-16T00:08:33;6.22;;;3.38;;
55710;SDS011;41612;51.994;5.880;2024-02-16T00:11:02;11.00;;;3.15;;
55710;SDS011;41612;51.994;5.880;2024-02-16T00:13:31;6.70;;;3.22;;
55710;SDS011;41612;51.994;5.880;2024-02-16T00:15:59;4.82;;;2.80;;
55710;SDS011;41612;51.994;5.880;2024-02-16T00:18:25;5.20;;;2.35;;
55710;SDS011;41612;51.994;5.880;2024-02-16T00:20:51;8.38;;;2.80;;
55710;SDS011;41612;51.994;5.880;2024-02-16T00:23:17;10.75;;;3.28;;
55710;SDS011;41612;51.994;5.880;2024-02-16T00:25:48;4.70;;;2.67;;
55710;SDS011;41612;51.994;5.880;2024-02-16T00:28:14;7.68;;;2.88;;
55710;SDS011;41612;51.994;5.880;2024-02-16T00:30:42;10.70;;;3.58;;
55710;SDS011;41612;51.994;5.880;2024-02-16T00:33:12;5.97;;;3.00;;
55710;SDS011;41612;51.994;5.880;2024-02-16T00:35:37;6.47;;;2.80;;
55710;SDS011;41612;51.994;5.880;2024-02-16T00:38:03;9.20;;;3.20;;
55710;SDS011;41612;51.994;5.880;2024-02-16T00:40:30;9.52;;;2.72;;
55710;SDS011;41612;51.994;5.880;2024-02-16T00:42:59;5.95;;;3.08;;
55710;SDS011;41612;51.994;5.880;2024-02-16T00:45:24;7.45;;;2.60;;
55710;SDS011;41612;51.994;5.880;2024-02-16T00:47:50;6.40;;;3.35;;
55710;SDS011;41612;51.994;5.880;2024-02-16T00:50:18;6.25;;;3.33;;
55710;SDS011;41612;51.994;5.880;2024-02-16T00:52:46;10.20;;;3.20;;
55710;SDS011;41612;51.994;5.880;2024-02-16T00:55:15;7.25;;;3.10;;
55710;SDS011;41612;51.994;5.880;2024-02-16T00:57:46;5.10;;;2.90;;
55710;SDS011;41612;51.994;5.880;2024-02-16T01:00:14;5.45;;;2.47;;
55710;SDS011;41612;51.994;5.880;2024-02-16T01:02:40;4.85;;;2.67;;
55710;SDS011;41612;51.994;5.880;2024-02-16T01:05:07;5.88;;;2.72;;
55710;SDS011;41612;51.994;5.880;2024-02-16T01:07:35;8.55;;;3.08;;
55710;SDS011;41612;51.994;5.880;2024-02-16T01:10:01;7.50;;;3.00;;
55710;SDS011;41612;51.994;5.880;2024-02-16T01:12:31;7.72;;;2.38;;
55710;SDS011;41612;51.994;5.880;2024-02-16T01:14:56;7.65;;;3.10;;
55710;SDS011;41612;51.994;5.880;2024-02-16T01:17:22;11.07;;;2.88;;
55710;SDS011;41612;51.994;5.880;2024-02-16T01:19:57;6.65;;;2.97;;
55710;SDS011;41612;51.994;5.880;2024-02-16T01:22:26;7.35;;;2.65;;
55710;SDS011;41612;51.994;5.880;2024-02-16T01:24:57;8.63;;;3.00;;
55710;SDS011;41612;51.994;5.880;2024-02-16T01:27:25;5.35;;;2.58;;
55710;SDS011;41612;51.994;5.880;2024-02-16T01:29:52;7.63;;;3.05;;
55710;SDS011;41612;51.994;5.880;2024-02-16T01:32:20;9.10;;;3.15;;
55710;SDS011;41612;51.994;5.880;2024-02-16T01:34:46;8.55;;;2.80;;
55710;SDS011;41612;51.994;5.880;2024-02-16T01:37:14;6.75;;;3.50;;
55710;SDS011;41612;51.994;5.880;2024-02-16T01:39:44;7.90;;;3.22;;
55710;SDS011;41612;51.994;5.880;2024-02-16T01:42:11;8.13;;;3.50;;
55710;SDS011;41612;51.994;5.880;2024-02-16T01:44:39;5.82;;;2.65;;
55710;SDS011;41612;51.994;5.880;2024-02-16T01:47:07;7.70;;;3.33;;
55710;SDS011;41612;51.994;5.880;2024-02-16T01:49:33;9.50;;;3.45;;
55710;SDS011;41612;51.994;5.880;2024-02-16T01:52:08;10.55;;;2.80;;
55710;SDS011;41612;51.994;5.880;2024-02-16T01:54:34;4.95;;;2.63;;
55710;SDS011;41612;51.994;5.880;2024-02-16T01:57:03;8.88;;;3.17;;
55710;SDS011;41612;51.994;5.880;2024-02-16T01:59:33;7.47;;;2.90;;
55710;SDS011;41612;51.994;5.880;2024-02-16T02:02:05;8.38;;;3.38;;
55710;SDS011;41612;51.994;5.880;2024-02-16T02:04:32;4.97;;;2.50;;
55710;SDS011;41612;51.994;5.880;2024-02-16T02:06:59;7.43;;;3.03;;
55710;SDS011;41612;51.994;5.880;2024-02-16T02:09:25;5.38;;;2.78;;
55710;SDS011;41612;51.994;5.880;2024-02-16T02:11:53;8.38;;;3.10;;
55710;SDS011;41612;51.994;5.880;2024-02-16T02:14:22;5.50;;;3.13;;
55710;SDS011;41612;51.994;5.880;2024-02-16T02:16:48;5.65;;;2.58;;
55710;SDS011;41612;51.994;5.880;2024-02-16T02:19:17;8.32;;;3.67;;
55710;SDS011;41612;51.994;5.880;2024-02-16T02:21:42;6.20;;;2.88;;
55710;SDS011;41612;51.994;5.880;2024-02-16T02:24:11;5.63;;;2.67;;
55710;SDS011;41612;51.994;5.880;2024-02-16T02:26:37;7.95;;;2.80;;
55710;SDS011;41612;51.994;5.880;2024-02-16T02:29:03;6.22;;;2.60;;
55710;SDS011;41612;51.994;5.880;2024-02-16T02:31:30;6.32;;;3.33;;
55710;SDS011;41612;51.994;5.880;2024-02-16T02:33:55;9.35;;;3.10;;
55710;SDS011;41612;51.994;5.880;2024-02-16T02:36:21;11.18;;;3.03;;
55710;SDS011;41612;51.994;5.880;2024-02-16T02:38:47;4.15;;;2.45;;
55710;SDS011;41612;51.994;5.880;2024-02-16T02:41:16;7.85;;;3.13;;
55710;SDS011;41612;51.994;5.880;2024-02-16T02:43:45;6.72;;;3.10;;
55710;SDS011;41612;51.994;5.880;2024-02-16T02:46:15;6.22;;;3.13;;
55710;SDS011;41612;51.994;5.880;2024-02-16T02:48:42;6.82;;;3.10;;
55710;SDS011;41612;51.994;5.880;2024-02-16T02:51:11;7.43;;;2.92;;
55710;SDS011;41612;51.994;5.880;2024-02-16T02:53:37;6.13;;;2.67;;
55710;SDS011;41612;51.994;5.880;2024-02-16T02:56:03;8.05;;;2.92;;
55710;SDS011;41612;51.994;5.880;2024-02-16T02:58:41;4.47;;;2.78;;
55710;SDS011;41612;51.994;5.880;2024-02-16T03:01:07;7.43;;;2.65;;
55710;SDS011;41612;51.994;5.880;2024-02-16T03:03:36;5.53;;;2.67;;
55710;SDS011;41612;51.994;5.880;2024-02-16T03:06:04;4.68;;;2.72;;
55710;SDS011;41612;51.994;5.880;2024-02-16T03:08:35;7.65;;;3.42;;
55710;SDS011;41612;51.994;5.880;2024-02-16T03:11:01;5.25;;;2.90;;
55710;SDS011;41612;51.994;5.880;2024-02-16T03:13:32;5.30;;;3.08;;
55710;SDS011;41612;51.994;5.880;2024-02-16T03:16:01;6.60;;;2.65;;
55710;SDS011;41612;51.994;5.880;2024-02-16T03:18:29;8.55;;;2.90;;
55710;SDS011;41612;51.994;5.880;2024-02-16T03:21:01;4.68;;;2.78;;
55710;SDS011;41612;51.994;5.880;2024-02-16T03:23:27;4.97;;;2.70;;
55710;SDS011;41612;51.994;5.880;2024-02-16T03:25:53;4.95;;;2.58;;
55710;SDS011;41612;51.994;5.880;2024-02-16T03:28:24;6.97;;;2.53;;
55710;SDS011;41612;51.994;5.880;2024-02-16T03:30:52;5.55;;;3.15;;
55710;SDS011;41612;51.994;5.880;2024-02-16T03:33:20;5.18;;;2.85;;
55710;SDS011;41612;51.994;5.880;2024-02-16T03:35:48;6.50;;;2.42;;
55710;SDS011;41612;51.994;5.880;2024-02-16T03:38:17;6.70;;;2.90;;
55710;SDS011;41612;51.994;5.880;2024-02-16T03:40:42;5.88;;;2.90;;
55710;SDS011;41612;51.994;5.880;2024-02-16T03:43:08;4.97;;;2.83;;
55710;SDS011;41612;51.994;5.880;2024-02-16T03:45:39;8.45;;;3.85;;
55710;SDS011;41612;51.994;5.880;2024-02-16T03:48:07;8.77;;;2.88;;
55710;SDS011;41612;51.994;5.880;2024-02-16T03:50:33;5.07;;;2.80;;
55710;SDS011;41612;51.994;5.880;2024-02-16T03:53:06;6.40;;;3.28;;
55710;SDS011;41612;51.994;5.880;2024-02-16T03:55:32;5.38;;;3.15;;
55710;SDS011;41612;51.994;5.880;2024-02-16T03:58:01;6.93;;;3.35;;
55710;SDS011;41612;51.994;5.880;2024-02-16T04:00:30;4.65;;;2.38;;
55710;SDS011;41612;51.994;5.880;2024-02-16T04:02:57;9.95;;;3.13;;
55710;SDS011;41612;51.994;5.880;2024-02-16T04:05:24;8.98;;;3.33;;
55710;SDS011;41612;51.994;5.880;2024-02-16T04:07:56;3.92;;;2.70;;
55710;SDS011;41612;51.994;5.880;2024-02-16T04:10:26;6.03;;;2.90;;
55710;SDS011;41612;51.994;5.880;2024-02-16T04:12:53;8.65;;;2.97;;
55710;SDS011;41612;51.994;5.880;2024-02-16T04:15:22;6.50;;;3.20;;
55710;SDS011;41612;51.994;5.880;2024-02-16T04:17:53;7.53;;;3.00;;
55710;SDS011;41612;51.994;5.880;2024-02-16T04:20:20;6.07;;;2.80;;
55710;SDS011;41612;51.994;5.880;2024-02-16T04:22:47;4.13;;;3.03;;
55710;SDS011;41612;51.994;5.880;2024-02-16T04:25:13;6.47;;;2.63;;
55710;SDS011;41612;51.994;5.880;2024-02-16T04:27:38;7.43;;;3.30;;
55710;SDS011;41612;51.994;5.880;2024-02-16T04:30:09;4.85;;;2.67;;
55710;SDS011;41612;51.994;5.880;2024-02-16T04:32:35;5.65;;;2.67;;
55710;SDS011;41612;51.994;5.880;2024-02-16T04:35:02;7.28;;;2.72;;
55710;SDS011;41612;51.994;5.880;2024-02-16T04:37:31;5.35;;;2.58;;
55710;SDS011;41612;51.994;5.880;2024-02-16T04:39:57;5.47;;;2.40;;
55710;SDS011;41612;51.994;5.880;2024-02-16T04:42:26;6.40;;;2.78;;
55710;SDS011;41612;51.994;5.880;2024-02-16T04:45:04;5.50;;;3.17;;
55710;SDS011;41612;51.994;5.880;2024-02-16T04:47:36;8.25;;;2.72;;
55710;SDS011;41612;51.994;5.880;2024-02-16T04:50:06;6.00;;;2.70;;
55710;SDS011;41612;51.994;5.880;2024-02-16T04:52:38;8.70;;;3.33;;
55710;SDS011;41612;51.994;5.880;2024-02-16T04:55:05;4.07;;;2.65;;
55710;SDS011;41612;51.994;5.880;2024-02-16T04:57:34;7.70;;;3.13;;
55710;SDS011;41612;51.994;5.880;2024-02-16T05:00:03;4.32;;;2.50;;
55710;SDS011;41612;51.994;5.880;2024-02-16T05:02:31;7.07;;;2.90;;
55710;SDS011;41612;51.994;5.880;2024-02-16T05:04:59;4.38;;;2.47;;
55710;SDS011;41612;51.994;5.880;2024-02-16T05:07:30;6.30;;;3.22;;
55710;SDS011;41612;51.994;5.880;2024-02-16T05:10:03;5.55;;;2.78;;
55710;SDS011;41612;51.994;5.880;2024-02-16T05:12:40;6.60;;;3.15;;
55710;SDS011;41612;51.994;5.880;2024-02-16T05:15:06;7.28;;;2.88;;
55710;SDS011;41612;51.994;5.880;2024-02-16T05:17:32;6.57;;;3.50;;
55710;SDS011;41612;51.994;5.880;2024-02-16T05:20:01;5.60;;;3.40;;
55710;SDS011;41612;51.994;5.880;2024-02-16T05:22:29;6.95;;;3.30;;
55710;SDS011;41612;51.994;5.880;2024-02-16T05:24:55;5.32;;;3.60;;
55710;SDS011;41612;51.994;5.880;2024-02-16T05:27:24;6.07;;;3.40;;
55710;SDS011;41612;51.994;5.880;2024-02-16T05:29:53;6.13;;;2.83;;
55710;SDS011;41612;51.994;5.880;2024-02-16T05:32:18;5.32;;;2.80;;
55710;SDS011;41612;51.994;5.880;2024-02-16T05:34:44;5.43;;;3.22;;
55710;SDS011;41612;51.994;5.880;2024-02-16T05:37:10;6.97;;;3.20;;
55710;SDS011;41612;51.994;5.880;2024-02-16T05:39:46;7.38;;;3.10;;
55710;SDS011;41612;51.994;5.880;2024-02-16T05:42:33;4.72;;;2.80;;
55710;SDS011;41612;51.994;5.880;2024-02-16T05:45:02;4.47;;;2.78;;
55710;SDS011;41612;51.994;5.880;2024-02-16T05:47:28;6.13;;;3.10;;
55710;SDS011;41612;51.994;5.880;2024-02-16T05:49:53;7.13;;;2.75;;
55710;SDS011;41612;51.994;5.880;2024-02-16T05:52:20;6.40;;;3.20;;
55710;SDS011;41612;51.994;5.880;2024-02-16T05:54:46;12.88;;;3.53;;
55710;SDS011;41612;51.994;5.880;2024-02-16T05:57:13;6.50;;;3.17;;
55710;SDS011;41612;51.994;5.880;2024-02-16T05:59:39;5.68;;;2.95;;
55710;SDS011;41612;51.994;5.880;2024-02-16T06:02:11;5.95;;;3.17;;
55710;SDS011;41612;51.994;5.880;2024-02-16T06:04:38;6.10;;;2.80;;
55710;SDS011;41612;51.994;5.880;2024-02-16T06:07:09;6.18;;;2.90;;
55710;SDS011;41612;51.994;5.880;2024-02-16T06:09:36;6.38;;;3.00;;
55710;SDS011;41612;51.994;5.880;2024-02-16T06:12:06;8.60;;;3.55;;
55710;SDS011;41612;51.994;5.880;2024-02-16T06:14:34;7.07;;;3.10;;
55710;SDS011;41612;51.994;5.880;2024-02-16T06:17:07;5.78;;;3.40;;
55710;SDS011;41612;51.994;5.880;2024-02-16T06:19:36;7.63;;;3.55;;
55710;SDS011;41612;51.994;5.880;2024-02-16T06:22:10;6.80;;;3.78;;
55710;SDS011;41612;51.994;5.880;2024-02-16T06:24:35;5.70;;;2.85;;
55710;SDS011;41612;51.994;5.880;2024-02-16T06:27:05;4.88;;;2.72;;
55710;SDS011;41612;51.994;5.880;2024-02-16T06:29:33;10.13;;;3.08;;
55710;SDS011;41612;51.994;5.880;2024-02-16T06:32:02;6.65;;;3.30;;
55710;SDS011;41612;51.994;5.880;2024-02-16T06:34:31;6.35;;;3.85;;
55710;SDS011;41612;51.994;5.880;2024-02-16T06:36:57;7.20;;;3.30;;
55710;SDS011;41612;51.994;5.880;2024-02-16T06:39:23;7.63;;;3.75;;
55710;SDS011;41612;51.994;5.880;2024-02-16T06:41:48;7.78;;;2.80;;
55710;SDS011;41612;51.994;5.880;2024-02-16T06:44:15;5.88;;;2.97;;
55710;SDS011;41612;51.994;5.880;2024-02-16T06:46:43;8.95;;;3.33;;
55710;SDS011;41612;51.994;5.880;2024-02-16T06:49:09;5.22;;;3.25;;
55710;SDS011;41612;51.994;5.880;2024-02-16T06:51:36;9.15;;;3.92;;
55710;SDS011;41612;51.994;5.880;2024-02-16T06:54:05;8.27;;;3.88;;
55710;SDS011;41612;51.994;5.880;2024-02-16T06:56:31;7.68;;;3.33;;
55710;SDS011;41612;51.994;5.880;2024-02-16T06:59:00;7.40;;;3.55;;
55710;SDS011;41612;51.994;5.880;2024-02-16T07:01:36;4.65;;;2.90;;
55710;SDS011;41612;51.994;5.880;2024-02-16T07:04:02;7.63;;;3.45;;
55710;SDS011;41612;51.994;5.880;2024-02-16T07:06:28;6.78;;;3.42;;
55710;SDS011;41612;51.994;5.880;2024-02-16T07:08:58;5.75;;;3.30;;
55710;SDS011;41612;51.994;5.880;2024-02-16T07:11:27;7.85;;;3.35;;
55710;SDS011;41612;51.994;5.880;2024-02-16T07:14:02;9.43;;;4.32;;
55710;SDS011;41612;51.994;5.880;2024-02-16T07:16:29;7.32;;;3.10;;
55710;SDS011;41612;51.994;5.880;2024-02-16T07:18:55;5.55;;;3.35;;
55710;SDS011;41612;51.994;5.880;2024-02-16T07:21:21;10.48;;;3.63;;
55710;SDS011;41612;51.994;5.880;2024-02-16T07:23:48;10.65;;;4.40;;
55710;SDS011;41612;51.994;5.880;2024-02-16T07:26:14;5.15;;;2.95;;
55710;SDS011;41612;51.994;5.880;2024-02-16T07:28:43;7.25;;;4.43;;
55710;SDS011;41612;51.994;5.880;2024-02-16T07:31:11;7.18;;;3.22;;
55710;SDS011;41612;51.994;5.880;2024-02-16T07:33:42;7.75;;;4.13;;
55710;SDS011;41612;51.994;5.880;2024-02-16T07:36:09;6.80;;;3.95;;
55710;SDS011;41612;51.994;5.880;2024-02-16T07:38:38;8.93;;;3.75;;
55710;SDS011;41612;51.994;5.880;2024-02-16T07:41:06;8.60;;;3.67;;
55710;SDS011;41612;51.994;5.880;2024-02-16T07:43:40;10.98;;;3.80;;
55710;SDS011;41612;51.994;5.880;2024-02-16T07:46:08;10.10;;;4.18;;
55710;SDS011;41612;51.994;5.880;2024-02-16T07:48:34;7.35;;;3.60;;
55710;SDS011;41612;51.994;5.880;2024-02-16T07:51:03;9.55;;;3.70;;
55710;SDS011;41612;51.994;5.880;2024-02-16T07:53:29;5.60;;;3.35;;
55710;SDS011;41612;51.994;5.880;2024-02-16T07:55:56;9.93;;;4.25;;
55710;SDS011;41612;51.994;5.880;2024-02-16T07:58:22;5.97;;;3.90;;
55710;SDS011;41612;51.994;5.880;2024-02-16T08:00:47;7.10;;;4.05;;
55710;SDS011;41612;51.994;5.880;2024-02-16T08:03:17;8.20;;;4.13;;
55710;SDS011;41612;51.994;5.880;2024-02-16T08:05:45;5.97;;;3.47;;
55710;SDS011;41612;51.994;5.880;2024-02-16T08:08:11;6.50;;;3.40;;
55710;SDS011;41612;51.994;5.880;2024-02-16T08:10:37;8.43;;;3.90;;
55710;SDS011;41612;51.994;5.880;2024-02-16T08:13:05;8.98;;;3.92;;
55710;SDS011;41612;51.994;5.880;2024-02-16T08:15:33;6.78;;;3.60;;
55710;SDS011;41612;51.994;5.880;2024-02-16T08:17:59;7.03;;;4.13;;
55710;SDS011;41612;51.994;5.880;2024-02-16T08:20:25;6.80;;;3.40;;
55710;SDS011;41612;51.994;5.880;2024-02-16T08:22:58;7.97;;;4.25;;
55710;SDS011;41612;51.994;5.880;2024-02-16T08:25:26;9.45;;;3.50;;
55710;SDS011;41612;51.994;5.880;2024-02-16T08:27:53;7.53;;;3.58;;
55710;SDS011;41612;51.994;5.880;2024-02-16T08:30:21;6.18;;;3.08;;
55710;SDS011;41612;51.994;5.880;2024-02-16T08:32:53;8.35;;;4.10;;
55710;SDS011;41612;51.994;5.880;2024-02-16T08:35:21;6.70;;;4.07;;
55710;SDS011;41612;51.994;5.880;2024-02-16T08:37:50;9.18;;;3.85;;
55710;SDS011;41612;51.994;5.880;2024-02-16T08:40:16;10.30;;;4.82;;
55710;SDS011;41612;51.994;5.880;2024-02-16T08:42:42;6.85;;;4.50;;
55710;SDS011;41612;51.994;5.880;2024-02-16T08:45:10;8.35;;;4.22;;
55710;SDS011;41612;51.994;5.880;2024-02-16T08:47:43;7.63;;;3.47;;
55710;SDS011;41612;51.994;5.880;2024-02-16T08:50:11;8.77;;;3.92;;
55710;SDS011;41612;51.994;5.880;2024-02-16T08:52:37;8.45;;;4.18;;
55710;SDS011;41612;51.994;5.880;2024-02-16T08:55:06;8.55;;;4.28;;
55710;SDS011;41612;51.994;5.880;2024-02-16T08:57:35;8.18;;;4.50;;
55710;SDS011;41612;51.994;5.880;2024-02-16T09:00:01;7.68;;;3.97;;
55710;SDS011;41612;51.994;5.880;2024-02-16T09:02:28;9.02;;;4.28;;
55710;SDS011;41612;51.994;5.880;2024-02-16T09:04:58;7.18;;;4.45;;
55710;SDS011;41612;51.994;5.880;2024-02-16T09:07:26;7.40;;;4.53;;
55710;SDS011;41612;51.994;5.880;2024-02-16T09:09:52;7.93;;;4.55;;
55710;SDS011;41612;51.994;5.880;2024-02-16T09:12:22;10.57;;;4.28;;
55710;SDS011;41612;51.994;5.880;2024-02-16T09:14:48;6.00;;;3.55;;
55710;SDS011;41612;51.994;5.880;2024-02-16T09:17:19;8.90;;;5.03;;
55710;SDS011;41612;51.994;5.880;2024-02-16T09:19:53;8.70;;;4.47;;
55710;SDS011;41612;51.994;5.880;2024-02-16T09:22:21;7.97;;;3.97;;
55710;SDS011;41612;51.994;5.880;2024-02-16T09:24:47;6.07;;;3.85;;
55710;SDS011;41612;51.994;5.880;2024-02-16T09:27:15;10.75;;;4.70;;
55710;SDS011;41612;51.994;5.880;2024-02-16T09:29:44;7.80;;;4.05;;
55710;SDS011;41612;51.994;5.880;2024-02-16T09:32:10;7.28;;;3.90;;
55710;SDS011;41612;51.994;5.880;2024-02-16T09:34:36;7.38;;;4.60;;
55710;SDS011;41612;51.994;5.880;2024-02-16T09:37:01;9.73;;;4.05;;
55710;SDS011;41612;51.994;5.880;2024-02-16T09:39:28;5.85;;;3.53;;
55710;SDS011;41612;51.994;5.880;2024-02-16T09:41:55;6.72;;;3.47;;
55710;SDS011;41612;51.994;5.880;2024-02-16T09:44:24;7.45;;;3.13;;
55710;SDS011;41612;51.994;5.880;2024-02-16T09:46:53;8.32;;;4.90;;
55710;SDS011;41612;51.994;5.880;2024-02-16T09:49:22;6.57;;;4.10;;
55710;SDS011;41612;51.994;5.880;2024-02-16T09:51:48;9.23;;;5.25;;
55710;SDS011;41612;51.994;5.880;2024-02-16T09:54:14;8.10;;;4.70;;
55710;SDS011;41612;51.994;5.880;2024-02-16T09:56:42;9.52;;;4.22;;
55710;SDS011;41612;51.994;5.880;2024-02-16T09:59:10;11.00;;;5.00;;
55710;SDS011;41612;51.994;5.880;2024-02-16T10:01:38;9.73;;;4.85;;
55710;SDS011;41612;51.994;5.880;2024-02-16T10:04:07;9.40;;;5.03;;
55710;SDS011;41612;51.994;5.880;2024-02-16T10:06:48;8.23;;;4.50;;
55710;SDS011;41612;51.994;5.880;2024-02-16T10:09:26;12.95;;;4.68;;
55710;SDS011;41612;51.994;5.880;2024-02-16T10:11:55;9.48;;;5.10;;
55710;SDS011;41612;51.994;5.880;2024-02-16T10:14:21;13.95;;;4.82;;
55710;SDS011;41612;51.994;5.880;2024-02-16T10:17:02;8.53;;;4.20;;
55710;SDS011;41612;51.994;5.880;2024-02-16T10:19:31;11.82;;;5.25;;
55710;SDS011;41612;51.994;5.880;2024-02-16T10:22:07;8.18;;;4.57;;
55710;SDS011;41612;51.994;5.880;2024-02-16T10:24:36;9.25;;;4.45;;
55710;SDS011;41612;51.994;5.880;2024-02-16T10:27:05;7.05;;;4.68;;
55710;SDS011;41612;51.994;5.880;2024-02-16T10:29:38;8.82;;;4.47;;
55710;SDS011;41612;51.994;5.880;2024-02-16T10:32:10;9.27;;;6.03;;
55710;SDS011;41612;51.994;5.880;2024-02-16T10:34:40;10.00;;;5.45;;
55710;SDS011;41612;51.994;5.880;2024-02-16T10:37:11;7.80;;;5.03;;
55710;SDS011;41612;51.994;5.880;2024-02-16T10:39:39;8.88;;;5.35;;
55710;SDS011;41612;51.994;5.880;2024-02-16T10:42:06;8.23;;;5.28;;
55710;SDS011;41612;51.994;5.880;2024-02-16T10:44:33;12.57;;;5.35;;
55710;SDS011;41612;51.994;5.880;2024-02-16T10:47:08;12.05;;;5.70;;
55710;SDS011;41612;51.994;5.880;2024-02-16T10:49:36;9.20;;;4.63;;
55710;SDS011;41612;51.994;5.880;2024-02-16T10:52:04;9.85;;;5.45;;
55710;SDS011;41612;51.994;5.880;2024-02-16T10:54:32;10.85;;;5.30;;
55710;SDS011;41612;51.994;5.880;2024-02-16T10:57:08;9.15;;;5.25;;
55710;SDS011;41612;51.994;5.880;2024-02-16T10:59:41;9.02;;;5.35;;
55710;SDS011;41612;51.994;5.880;2024-02-16T11:02:14;12.05;;;6.65;;
55710;SDS011;41612;51.994;5.880;2024-02-16T11:04:45;8.65;;;6.15;;
55710;SDS011;41612;51.994;5.880;2024-02-16T11:07:15;7.30;;;5.20;;
55710;SDS011;41612;51.994;5.880;2024-02-16T11:09:42;13.07;;;5.82;;
55710;SDS011;41612;51.994;5.880;2024-02-16T11:12:11;10.93;;;5.78;;
55710;SDS011;41612;51.994;5.880;2024-02-16T11:14:41;12.00;;;6.25;;
55710;SDS011;41612;51.994;5.880;2024-02-16T11:17:29;10.25;;;5.45;;
55710;SDS011;41612;51.994;5.880;2024-02-16T11:19:56;10.45;;;6.47;;
55710;SDS011;41612;51.994;5.880;2024-02-16T11:22:30;11.55;;;6.20;;
55710;SDS011;41612;51.994;5.880;2024-02-16T11:25:04;6.65;;;5.28;;
55710;SDS011;41612;51.994;5.880;2024-02-16T11:27:36;11.75;;;8.45;;
55710;SDS011;41612;51.994;5.880;2024-02-16T11:30:10;13.60;;;8.88;;
55710;SDS011;41612;51.994;5.880;2024-02-16T11:32:40;14.90;;;8.15;;
55710;SDS011;41612;51.994;5.880;2024-02-16T11:35:08;15.50;;;10.45;;
55710;SDS011;41612;51.994;5.880;2024-02-16T11:37:34;17.05;;;9.82;;
55710;SDS011;41612;51.994;5.880;2024-02-16T11:40:00;12.07;;;8.80;;
55710;SDS011;41612;51.994;5.880;2024-02-16T11:42:26;16.17;;;10.95;;
55710;SDS011;41612;51.994;5.880;2024-02-16T11:44:55;16.75;;;10.18;;
55710;SDS011;41612;51.994;5.880;2024-02-16T11:47:21;10.63;;;8.45;;
55710;SDS011;41612;51.994;5.880;2024-02-16T11:50:01;11.88;;;9.40;;
55710;SDS011;41612;51.994;5.880;2024-02-16T11:52:28;16.00;;;9.88;;
55710;SDS011;41612;51.994;5.880;2024-02-16T11:54:54;11.95;;;8.43;;
55710;SDS011;41612;51.994;5.880;2024-02-16T11:57:20;17.30;;;11.65;;
55710;SDS011;41612;51.994;5.880;2024-02-16T11:59:47;21.23;;;11.77;;
55710;SDS011;41612;51.994;5.880;2024-02-16T12:02:19;12.82;;;9.15;;
55710;SDS011;41612;51.994;5.880;2024-02-16T12:04:57;13.15;;;10.80;;
55710;SDS011;41612;51.994;5.880;2024-02-16T12:07:26;12.38;;;10.10;;
55710;SDS011;41612;51.994;5.880;2024-02-16T12:10:01;17.50;;;12.50;;
55710;SDS011;41612;51.994;5.880;2024-02-16T12:12:30;14.13;;;9.38;;
55710;SDS011;41612;51.994;5.880;2024-02-16T12:14:59;15.10;;;10.88;;
55710;SDS011;41612;51.994;5.880;2024-02-16T12:17:25;9.10;;;6.53;;
55710;SDS011;41612;51.994;5.880;2024-02-16T12:19:51;11.45;;;8.80;;
55710;SDS011;41612;51.994;5.880;2024-02-16T12:22:20;12.13;;;7.90;;
55710;SDS011;41612;51.994;5.880;2024-02-16T12:24:49;12.35;;;9.25;;
55710;SDS011;41612;51.994;5.880;2024-02-16T12:27:16;14.68;;;11.20;;
55710;SDS011;41612;51.994;5.880;2024-02-16T12:29:45;13.73;;;10.85;;
55710;SDS011;41612;51.994;5.880;2024-02-16T12:32:11;14.23;;;12.45;;
55710;SDS011;41612;51.994;5.880;2024-02-16T12:34:43;12.65;;;10.35;;
55710;SDS011;41612;51.994;5.880;2024-02-16T12:37:09;10.05;;;8.27;;
55710;SDS011;41612;51.994;5.880;2024-02-16T12:39:39;14.65;;;10.35;;
55710;SDS011;41612;51.994;5.880;2024-02-16T12:42:12;9.07;;;7.30;;
55710;SDS011;41612;51.994;5.880;2024-02-16T12:44:39;10.95;;;7.75;;
55710;SDS011;41612;51.994;5.880;2024-02-16T12:47:10;9.02;;;8.13;;
55710;SDS011;41612;51.994;5.880;2024-02-16T12:49:38;14.68;;;11.32;;
55710;SDS011;41612;51.994;5.880;2024-02-16T12:52:08;12.45;;;9.68;;
55710;SDS011;41612;51.994;5.880;2024-02-16T12:54:38;8.38;;;6.32;;
55710;SDS011;41612;51.994;5.880;2024-02-16T12:57:04;8.88;;;6.70;;
55710;SDS011;41612;51.994;5.880;2024-02-16T12:59:37;7.65;;;6.40;;
55710;SDS011;41612;51.994;5.880;2024-02-16T13:02:05;10.25;;;8.68;;
55710;SDS011;41612;51.994;5.880;2024-02-16T13:04:35;9.27;;;7.22;;
55710;SDS011;41612;51.994;5.880;2024-02-16T13:07:01;10.75;;;8.70;;
55710;SDS011;41612;51.994;5.880;2024-02-16T13:09:29;11.30;;;7.47;;
55710;SDS011;41612;51.994;5.880;2024-02-16T13:11:55;10.07;;;7.88;;
55710;SDS011;41612;51.994;5.880;2024-02-16T13:14:21;11.38;;;8.48;;
55710;SDS011;41612;51.994;5.880;2024-02-16T13:16:47;10.40;;;8.45;;
55710;SDS011;41612;51.994;5.880;2024-02-16T13:19:13;9.05;;;6.55;;
55710;SDS011;41612;51.994;5.880;2024-02-16T13:21:39;13.88;;;9.20;;
55710;SDS011;41612;51.994;5.880;2024-02-16T13:24:05;12.82;;;10.05;;
55710;SDS011;41612;51.994;5.880;2024-02-16T13:26:31;9.68;;;7.75;;
55710;SDS011;41612;51.994;5.880;2024-02-16T13:28:57;8.73;;;7.05;;
55710;SDS011;41612;51.994;5.880;2024-02-16T13:31:25;8.70;;;6.28;;
55710;SDS011;41612;51.994;5.880;2024-02-16T13:33:53;13.32;;;8.90;;
55710;SDS011;41612;51.994;5.880;2024-02-16T13:36:19;10.32;;;8.15;;
55710;SDS011;41612;51.994;5.880;2024-02-16T13:38:45;7.85;;;6.97;;
55710;SDS011;41612;51.994;5.880;2024-02-16T13:41:11;11.43;;;7.50;;
55710;SDS011;41612;51.994;5.880;2024-02-16T13:43:38;8.93;;;6.13;;
55710;SDS011;41612;51.994;5.880;2024-02-16T13:46:07;9.07;;;6.88;;
55710;SDS011;41612;51.994;5.880;2024-02-16T13:48:33;6.07;;;4.82;;
55710;SDS011;41612;51.994;5.880;2024-02-16T13:51:04;8.52;;;6.28;;
55710;SDS011;41612;51.994;5.880;2024-02-16T13:53:32;9.32;;;7.82;;
55710;SDS011;41612;51.994;5.880;2024-02-16T13:56:07;7.75;;;5.75;;
55710;SDS011;41612;51.994;5.880;2024-02-16T13:58:33;6.00;;;5.25;;
55710;SDS011;41612;51.994;5.880;2024-02-16T14:01:03;7.25;;;6.00;;
55710;SDS011;41612;51.994;5.880;2024-02-16T14:03:35;6.57;;;4.18;;
55710;SDS011;41612;51.994;5.880;2024-02-16T14:06:01;5.80;;;4.68;;
55710;SDS011;41612;51.994;5.880;2024-02-16T14:08:38;5.97;;;4.50;;
55710;SDS011;41612;51.994;5.880;2024-02-16T14:11:03;6.07;;;4.85;;
55710;SDS011;41612;51.994;5.880;2024-02-16T14:13:29;4.60;;;4.10;;
55710;SDS011;41612;51.994;5.880;2024-02-16T14:15:58;5.93;;;4.78;;
55710;SDS011;41612;51.994;5.880;2024-02-16T14:18:24;6.25;;;4.75;;
55710;SDS011;41612;51.994;5.880;2024-02-16T14:20:53;5.63;;;4.32;;
55710;SDS011;41612;51.994;5.880;2024-02-16T14:23:21;6.07;;;4.90;;
55710;SDS011;41612;51.994;5.880;2024-02-16T14:25:47;4.97;;;4.00;;
55710;SDS011;41612;51.994;5.880;2024-02-16T14:28:12;4.93;;;3.53;;
55710;SDS011;41612;51.994;5.880;2024-02-16T14:30:40;4.45;;;3.40;;
55710;SDS011;41612;51.994;5.880;2024-02-16T14:33:09;4.97;;;3.53;;
55710;SDS011;41612;51.994;5.880;2024-02-16T14:35:35;4.57;;;3.40;;
55710;SDS011;41612;51.994;5.880;2024-02-16T14:38:06;4.38;;;2.88;;
55710;SDS011;41612;51.994;5.880;2024-02-16T14:40:38;3.90;;;2.70;;
55710;SDS011;41612;51.994;5.880;2024-02-16T14:43:12;5.93;;;3.25;;
55710;SDS011;41612;51.994;5.880;2024-02-16T14:45:40;4.88;;;3.38;;
55710;SDS011;41612;51.994;5.880;2024-02-16T14:48:27;6.00;;;2.80;;
55710;SDS011;41612;51.994;5.880;2024-02-16T14:50:58;5.80;;;2.97;;
55710;SDS011;41612;51.994;5.880;2024-02-16T14:53:24;3.67;;;2.45;;